Quincy, Washington
Current Conditions -  °F | °C
As of 11:53 PM on Friday 24 Oct 2014 (Local Time) from KEPH Reporting Station
Overcast Overcast  
Wind Chill: 50°   Ceiling: 6000
Heat Index: 50°   Visibility: 10mi
Dew Point: 47°   Wind: 12mph
Humidity: 89%   Direction: 350°N
Pressure: 29.9"   Gusts: NA
Location:  47.23°N, 119.85°W
Report Text: KEPH 250653Z AUTO 35010KT 10SM FEW017 OVC060 10/08 A2990 RMK AO2 SLP127 T01000083
Loading
Personal Weather Stations






























Interactive Weather Map
Tropical Storm Tracking
New forecast layout! Learn more

10-Day Weather Forecast

Advertisements
Track Severe Weather on mobile